Cincinnati, Ohio
Traffic Map
Current Weather Conditions
Cincinnati, Ohio
Clear
Clear

Feels Like: 5°
Wind Chill: Ceiling: Unl
Heat Index: Visibility: 10mi
Dew Point: Wind: 6mph
Humidity: 71% Direction: 30° (NNE)
Pressure: 30.02in Gusts: 0mph
Raw Report DataKLUK 010253Z 03005KT 10SM CLR 07/02 A3002 RMK AO2 SLP167 T00720022 51030
Traffic Incident Summary
Active as of:
Severity:
Category:
InformationThere was an issue retrieving the traffic information for this location. Please try a different location or try again shortly.
Advertisements
Track Severe Weather on mobile